sensor_id;sensor_type;location;lat;lon;timestamp;pressure;altitude;pressure_sealevel;temperature;humidity
18569;BME280;14780;48.316;-1.050;2023-01-27T00:00:11;100015.00;;;22.88;32.92
18569;BME280;14780;48.316;-1.050;2023-01-27T00:02:56;100017.75;;;22.88;33.02
18569;BME280;14780;48.316;-1.050;2023-01-27T00:05:41;100026.78;;;22.88;33.19
18569;BME280;14780;48.316;-1.050;2023-01-27T00:08:26;100026.16;;;22.86;33.02
18569;BME280;14780;48.316;-1.050;2023-01-27T00:11:10;100033.03;;;22.89;32.97
18569;BME280;14780;48.316;-1.050;2023-01-27T00:14:14;100039.06;;;22.91;33.12
18569;BME280;14780;48.316;-1.050;2023-01-27T00:16:59;100033.63;;;22.91;32.93
18569;BME280;14780;48.316;-1.050;2023-01-27T00:19:44;100027.94;;;22.92;33.10
18569;BME280;14780;48.316;-1.050;2023-01-27T00:22:28;100019.75;;;22.92;32.95
18569;BME280;14780;48.316;-1.050;2023-01-27T00:25:32;100017.94;;;22.98;33.24
18569;BME280;14780;48.316;-1.050;2023-01-27T00:28:16;100013.31;;;22.98;32.96
18569;BME280;14780;48.316;-1.050;2023-01-27T00:31:07;100014.16;;;22.99;33.18
18569;BME280;14780;48.316;-1.050;2023-01-27T00:34:11;100013.88;;;23.00;32.97
18569;BME280;14780;48.316;-1.050;2023-01-27T00:36:56;100003.81;;;23.01;33.11
18569;BME280;14780;48.316;-1.050;2023-01-27T00:39:41;100012.34;;;23.04;33.08
18569;BME280;14780;48.316;-1.050;2023-01-27T00:42:26;99993.00;;;23.06;33.21
18569;BME280;14780;48.316;-1.050;2023-01-27T00:45:11;99995.47;;;23.07;33.10
18569;BME280;14780;48.316;-1.050;2023-01-27T00:48:14;99993.00;;;23.06;32.85
18569;BME280;14780;48.316;-1.050;2023-01-27T00:50:59;100008.63;;;23.10;32.85
18569;BME280;14780;48.316;-1.050;2023-01-27T00:53:44;100001.25;;;23.11;33.04
18569;BME280;14780;48.316;-1.050;2023-01-27T00:56:29;100001.03;;;23.12;32.93
18569;BME280;14780;48.316;-1.050;2023-01-27T00:59:15;100004.59;;;23.13;32.88
18569;BME280;14780;48.316;-1.050;2023-01-27T01:01:59;100008.38;;;23.12;32.97
18569;BME280;14780;48.316;-1.050;2023-01-27T01:04:44;100002.81;;;23.18;33.04
18569;BME280;14780;48.316;-1.050;2023-01-27T01:07:28;99999.22;;;23.18;33.08
18569;BME280;14780;48.316;-1.050;2023-01-27T01:10:13;100004.78;;;23.23;32.88
18569;BME280;14780;48.316;-1.050;2023-01-27T01:12:58;100000.00;;;23.30;33.02
18569;BME280;14780;48.316;-1.050;2023-01-27T01:15:42;100002.97;;;23.28;32.82
18569;BME280;14780;48.316;-1.050;2023-01-27T01:18:27;100008.78;;;23.32;33.06
18569;BME280;14780;48.316;-1.050;2023-01-27T01:21:13;100009.94;;;23.36;32.91
18569;BME280;14780;48.316;-1.050;2023-01-27T01:23:59;100005.63;;;23.39;33.04
18569;BME280;14780;48.316;-1.050;2023-01-27T01:26:43;100008.47;;;23.44;32.84
18569;BME280;14780;48.316;-1.050;2023-01-27T01:29:28;100014.50;;;23.46;32.74
18569;BME280;14780;48.316;-1.050;2023-01-27T01:32:12;100003.66;;;23.51;32.88
18569;BME280;14780;48.316;-1.050;2023-01-27T01:34:57;100009.47;;;23.55;32.61
18569;BME280;14780;48.316;-1.050;2023-01-27T01:37:42;100007.06;;;23.58;32.64
18569;BME280;14780;48.316;-1.050;2023-01-27T01:40:26;100000.50;;;23.59;32.76
18569;BME280;14780;48.316;-1.050;2023-01-27T01:43:13;100002.50;;;23.64;32.82
18569;BME280;14780;48.316;-1.050;2023-01-27T01:46:00;99999.28;;;23.67;32.76
18569;BME280;14780;48.316;-1.050;2023-01-27T01:51:41;100003.47;;;23.74;32.46
18569;BME280;14780;48.316;-1.050;2023-01-27T01:54:52;100005.72;;;23.77;32.62
18569;BME280;14780;48.316;-1.050;2023-01-27T01:57:39;100004.66;;;23.78;32.40
18569;BME280;14780;48.316;-1.050;2023-01-27T02:00:26;100001.66;;;23.80;32.65
18569;BME280;14780;48.316;-1.050;2023-01-27T02:03:11;100002.16;;;23.77;32.55
18569;BME280;14780;48.316;-1.050;2023-01-27T02:05:56;100001.66;;;23.80;32.49
18569;BME280;14780;48.316;-1.050;2023-01-27T02:08:44;99998.91;;;23.80;32.52
18569;BME280;14780;48.316;-1.050;2023-01-27T02:11:29;99999.25;;;23.83;32.57
18569;BME280;14780;48.316;-1.050;2023-01-27T02:14:15;100000.69;;;23.86;32.24
18569;BME280;14780;48.316;-1.050;2023-01-27T02:17:02;100004.25;;;23.86;32.65
18569;BME280;14780;48.316;-1.050;2023-01-27T02:20:16;99993.91;;;23.88;32.61
18569;BME280;14780;48.316;-1.050;2023-01-27T02:29:07;99999.69;;;23.92;32.43
18569;BME280;14780;48.316;-1.050;2023-01-27T02:31:52;99997.53;;;23.94;32.34
18569;BME280;14780;48.316;-1.050;2023-01-27T02:34:37;99988.25;;;23.95;32.18
18569;BME280;14780;48.316;-1.050;2023-01-27T02:37:23;99986.25;;;23.90;32.35
18569;BME280;14780;48.316;-1.050;2023-01-27T02:40:09;99981.13;;;23.94;32.26
18569;BME280;14780;48.316;-1.050;2023-01-27T02:42:56;99980.31;;;23.93;32.31
18569;BME280;14780;48.316;-1.050;2023-01-27T02:45:41;99972.59;;;23.90;32.29
18569;BME280;14780;48.316;-1.050;2023-01-27T02:48:26;99976.50;;;23.94;32.21
18569;BME280;14780;48.316;-1.050;2023-01-27T02:51:11;99983.09;;;23.98;32.08
18569;BME280;14780;48.316;-1.050;2023-01-27T02:53:56;99983.63;;;23.95;32.43
18569;BME280;14780;48.316;-1.050;2023-01-27T02:56:40;99963.38;;;23.96;32.32
18569;BME280;14780;48.316;-1.050;2023-01-27T02:59:25;99980.34;;;23.98;32.17
18569;BME280;14780;48.316;-1.050;2023-01-27T03:02:10;99973.84;;;23.99;32.16
18569;BME280;14780;48.316;-1.050;2023-01-27T03:04:58;99965.63;;;23.99;32.08
18569;BME280;14780;48.316;-1.050;2023-01-27T03:07:43;99973.84;;;23.99;32.17
18569;BME280;14780;48.316;-1.050;2023-01-27T03:10:28;99973.84;;;23.99;32.11
18569;BME280;14780;48.316;-1.050;2023-01-27T03:13:13;99973.84;;;23.99;32.41
18569;BME280;14780;48.316;-1.050;2023-01-27T03:15:58;99966.69;;;23.98;32.10
18569;BME280;14780;48.316;-1.050;2023-01-27T03:19:02;99970.28;;;23.99;32.00
18569;BME280;14780;48.316;-1.050;2023-01-27T03:21:46;99966.69;;;23.98;32.29
18569;BME280;14780;48.316;-1.050;2023-01-27T03:24:34;99958.25;;;24.00;32.02
18569;BME280;14780;48.316;-1.050;2023-01-27T03:27:19;99966.69;;;23.98;32.02
18569;BME280;14780;48.316;-1.050;2023-01-27T03:30:04;99963.47;;;24.01;32.00
18569;BME280;14780;48.316;-1.050;2023-01-27T03:32:49;99967.53;;;23.99;31.98
18569;BME280;14780;48.316;-1.050;2023-01-27T03:35:36;99958.00;;;24.01;32.14
18569;BME280;14780;48.316;-1.050;2023-01-27T03:38:31;99956.03;;;23.97;31.94
18569;BME280;14780;48.316;-1.050;2023-01-27T03:41:35;99966.69;;;23.98;32.13
18569;BME280;14780;48.316;-1.050;2023-01-27T03:44:38;99957.44;;;23.99;32.03
18569;BME280;14780;48.316;-1.050;2023-01-27T03:47:42;99956.28;;;23.95;32.16
18569;BME280;14780;48.316;-1.050;2023-01-27T03:50:26;99965.03;;;23.97;32.00
18569;BME280;14780;48.316;-1.050;2023-01-27T03:53:21;99963.16;;;23.98;32.10
18569;BME280;14780;48.316;-1.050;2023-01-27T03:56:06;99962.59;;;23.96;32.25
18569;BME280;14780;48.316;-1.050;2023-01-27T03:58:51;99963.97;;;23.98;32.02
18569;BME280;14780;48.316;-1.050;2023-01-27T04:01:36;99963.16;;;23.98;32.15
18569;BME280;14780;48.316;-1.050;2023-01-27T04:04:20;99964.22;;;23.97;31.97
18569;BME280;14780;48.316;-1.050;2023-01-27T04:07:24;99963.38;;;23.96;32.17
18569;BME280;14780;48.316;-1.050;2023-01-27T04:10:09;99965.03;;;23.97;31.83
18569;BME280;14780;48.316;-1.050;2023-01-27T04:12:54;99957.13;;;23.96;32.03
18569;BME280;14780;48.316;-1.050;2023-01-27T04:15:39;99960.09;;;23.94;31.98
18569;BME280;14780;48.316;-1.050;2023-01-27T04:18:24;99959.56;;;23.97;32.08
18569;BME280;14780;48.316;-1.050;2023-01-27T04:21:08;99956.28;;;23.95;31.90
18569;BME280;14780;48.316;-1.050;2023-01-27T04:23:53;99961.97;;;23.94;32.16
18569;BME280;14780;48.316;-1.050;2023-01-27T04:26:37;99963.91;;;23.93;31.78
18569;BME280;14780;48.316;-1.050;2023-01-27T04:29:27;99964.41;;;23.90;31.78
18569;BME280;14780;48.316;-1.050;2023-01-27T04:32:13;99961.66;;;23.90;31.82
18569;BME280;14780;48.316;-1.050;2023-01-27T04:34:58;99963.91;;;23.93;31.80
18569;BME280;14780;48.316;-1.050;2023-01-27T04:37:42;99960.56;;;23.91;32.00
18569;BME280;14780;48.316;-1.050;2023-01-27T04:40:27;99960.56;;;23.91;31.80
18569;BME280;14780;48.316;-1.050;2023-01-27T04:43:12;99955.38;;;23.90;31.96
18569;BME280;14780;48.316;-1.050;2023-01-27T04:45:57;99959.44;;;23.87;31.98
18569;BME280;14780;48.316;-1.050;2023-01-27T04:48:42;99959.19;;;23.89;31.78
18569;BME280;14780;48.316;-1.050;2023-01-27T04:51:27;99961.09;;;23.88;31.82
18569;BME280;14780;48.316;-1.050;2023-01-27T04:54:12;99947.31;;;23.83;32.08
18569;BME280;14780;48.316;-1.050;2023-01-27T04:57:00;99948.50;;;23.87;31.82
18569;BME280;14780;48.316;-1.050;2023-01-27T04:59:48;99951.72;;;23.84;31.95
18569;BME280;14780;48.316;-1.050;2023-01-27T05:02:33;99953.13;;;23.87;31.82
18569;BME280;14780;48.316;-1.050;2023-01-27T05:05:18;99952.78;;;23.83;31.79
18569;BME280;14780;48.316;-1.050;2023-01-27T05:08:04;99945.41;;;23.84;31.74
18569;BME280;14780;48.316;-1.050;2023-01-27T05:10:50;99942.38;;;23.80;31.75
18569;BME280;14780;48.316;-1.050;2023-01-27T05:13:36;99954.38;;;23.79;31.83
18569;BME280;14780;48.316;-1.050;2023-01-27T05:16:22;99947.00;;;23.80;32.03
18569;BME280;14780;48.316;-1.050;2023-01-27T05:19:08;99954.94;;;23.81;31.86
18569;BME280;14780;48.316;-1.050;2023-01-27T05:21:53;99954.88;;;23.76;32.04
18569;BME280;14780;48.316;-1.050;2023-01-27T05:24:38;99953.81;;;23.77;31.80
18569;BME280;14780;48.316;-1.050;2023-01-27T05:27:22;99950.47;;;23.75;31.80
18569;BME280;14780;48.316;-1.050;2023-01-27T05:30:08;99951.31;;;23.76;31.81
18569;BME280;14780;48.316;-1.050;2023-01-27T05:32:53;99952.13;;;23.76;31.82
18569;BME280;14780;48.316;-1.050;2023-01-27T05:35:37;99940.88;;;23.73;32.17
18569;BME280;14780;48.316;-1.050;2023-01-27T05:38:22;99946.34;;;23.73;31.81
18569;BME280;14780;48.316;-1.050;2023-01-27T05:41:08;99948.81;;;23.74;31.89
18569;BME280;14780;48.316;-1.050;2023-01-27T05:43:55;99942.78;;;23.72;31.88
18569;BME280;14780;48.316;-1.050;2023-01-27T05:46:41;99939.16;;;23.67;32.04
18569;BME280;14780;48.316;-1.050;2023-01-27T05:49:26;99948.75;;;23.69;31.80
18569;BME280;14780;48.316;-1.050;2023-01-27T05:52:11;99950.66;;;23.69;31.64
18569;BME280;14780;48.316;-1.050;2023-01-27T05:54:55;99950.91;;;23.67;32.16
18569;BME280;14780;48.316;-1.050;2023-01-27T05:57:40;99949.00;;;23.68;32.02
18569;BME280;14780;48.316;-1.050;2023-01-27T06:00:25;99947.38;;;23.67;31.92
18569;BME280;14780;48.316;-1.050;2023-01-27T06:03:09;99943.78;;;23.66;32.04
18569;BME280;14780;48.316;-1.050;2023-01-27T06:05:55;99941.06;;;23.66;32.07
18569;BME280;14780;48.316;-1.050;2023-01-27T06:08:41;99953.31;;;23.64;31.77
18569;BME280;14780;48.316;-1.050;2023-01-27T06:11:26;99957.69;;;23.65;32.02
18569;BME280;14780;48.316;-1.050;2023-01-27T06:14:11;99954.16;;;23.64;31.71
18569;BME280;14780;48.316;-1.050;2023-01-27T06:16:55;99952.50;;;23.63;31.82
18569;BME280;14780;48.316;-1.050;2023-01-27T06:19:40;99960.38;;;23.60;31.75
18569;BME280;14780;48.316;-1.050;2023-01-27T06:22:25;99951.91;;;23.61;32.01
18569;BME280;14780;48.316;-1.050;2023-01-27T06:25:09;99948.94;;;23.63;32.10
18569;BME280;14780;48.316;-1.050;2023-01-27T06:27:55;99948.09;;;23.62;31.98
18569;BME280;14780;48.316;-1.050;2023-01-27T06:30:41;99947.28;;;23.62;31.91
18569;BME280;14780;48.316;-1.050;2023-01-27T06:33:25;99937.75;;;23.64;31.79
18569;BME280;14780;48.316;-1.050;2023-01-27T06:36:12;99942.06;;;23.60;31.66
18569;BME280;14780;48.316;-1.050;2023-01-27T06:38:57;99928.63;;;23.59;31.75
18569;BME280;14780;48.316;-1.050;2023-01-27T06:41:42;99932.44;;;23.58;32.07
18569;BME280;14780;48.316;-1.050;2023-01-27T06:44:26;99928.63;;;23.59;31.90
18569;BME280;14780;48.316;-1.050;2023-01-27T06:47:11;99929.47;;;23.59;32.06
18569;BME280;14780;48.316;-1.050;2023-01-27T06:49:55;99931.13;;;23.60;32.08
18569;BME280;14780;48.316;-1.050;2023-01-27T06:52:40;99924.53;;;23.56;32.05
18569;BME280;14780;48.316;-1.050;2023-01-27T06:55:26;99925.09;;;23.58;31.72
18569;BME280;14780;48.316;-1.050;2023-01-27T06:58:12;99919.06;;;23.56;32.01
18569;BME280;14780;48.316;-1.050;2023-01-27T07:00:58;99925.34;;;23.57;32.07
18569;BME280;14780;48.316;-1.050;2023-01-27T07:03:42;99923.34;;;23.52;32.01
18569;BME280;14780;48.316;-1.050;2023-01-27T07:06:27;99929.16;;;23.56;31.73
18569;BME280;14780;48.316;-1.050;2023-01-27T07:09:12;99928.31;;;23.55;31.76
18569;BME280;14780;48.316;-1.050;2023-01-27T07:11:56;99929.38;;;23.54;31.85
18569;BME280;14780;48.316;-1.050;2023-01-27T07:14:41;99937.59;;;23.54;31.78
18569;BME280;14780;48.316;-1.050;2023-01-27T07:17:26;99932.63;;;23.51;31.90
18569;BME280;14780;48.316;-1.050;2023-01-27T07:20:12;99935.59;;;23.50;31.71
18569;BME280;14780;48.316;-1.050;2023-01-27T07:23:02;99928.25;;;23.50;31.61
18569;BME280;14780;48.316;-1.050;2023-01-27T07:25:47;99940.50;;;23.48;31.81
18569;BME280;14780;48.316;-1.050;2023-01-27T07:28:32;99934.78;;;23.49;31.71
18569;BME280;14780;48.316;-1.050;2023-01-27T07:31:16;99946.19;;;23.46;32.00
18569;BME280;14780;48.316;-1.050;2023-01-27T07:34:01;99935.28;;;23.46;32.08
18569;BME280;14780;48.316;-1.050;2023-01-27T07:36:46;99930.31;;;23.43;32.06
18569;BME280;14780;48.316;-1.050;2023-01-27T07:39:31;99932.97;;;23.38;31.77
18569;BME280;14780;48.316;-1.050;2023-01-27T07:42:16;99937.09;;;23.41;31.66
18569;BME280;14780;48.316;-1.050;2023-01-27T07:45:01;99930.81;;;23.40;31.95
18569;BME280;14780;48.316;-1.050;2023-01-27T07:47:46;99938.44;;;23.38;31.96
18569;BME280;14780;48.316;-1.050;2023-01-27T07:50:31;99936.78;;;23.38;31.78
18569;BME280;14780;48.316;-1.050;2023-01-27T07:53:16;99940.84;;;23.35;31.85
18569;BME280;14780;48.316;-1.050;2023-01-27T07:56:01;99946.06;;;23.37;31.85
18569;BME280;14780;48.316;-1.050;2023-01-27T07:58:46;99949.53;;;23.32;31.98
18569;BME280;14780;48.316;-1.050;2023-01-27T08:01:30;99940.25;;;23.33;32.06
18569;BME280;14780;48.316;-1.050;2023-01-27T08:04:16;99946.53;;;23.33;31.80
18569;BME280;14780;48.316;-1.050;2023-01-27T08:07:01;99944.06;;;23.32;32.00
18569;BME280;14780;48.316;-1.050;2023-01-27T08:09:47;99937.78;;;23.32;32.14
18569;BME280;14780;48.316;-1.050;2023-01-27T08:12:32;99939.94;;;23.30;32.10
18569;BME280;14780;48.316;-1.050;2023-01-27T08:15:17;99933.63;;;23.29;32.22
18569;BME280;14780;48.316;-1.050;2023-01-27T08:18:02;99926.50;;;23.28;32.01
18569;BME280;14780;48.316;-1.050;2023-01-27T08:20:46;99938.00;;;23.30;32.13
18569;BME280;14780;48.316;-1.050;2023-01-27T08:23:31;99944.56;;;23.29;32.14
18569;BME280;14780;48.316;-1.050;2023-01-27T08:26:17;99944.22;;;23.26;32.21
18569;BME280;14780;48.316;-1.050;2023-01-27T08:29:01;99935.78;;;23.27;31.94
18569;BME280;14780;48.316;-1.050;2023-01-27T08:31:46;99948.88;;;23.25;32.10
18569;BME280;14780;48.316;-1.050;2023-01-27T08:34:31;99949.69;;;23.26;32.16
18569;BME280;14780;48.316;-1.050;2023-01-27T08:37:16;99945.06;;;23.26;32.23
18569;BME280;14780;48.316;-1.050;2023-01-27T08:40:01;99942.56;;;23.25;32.07
18569;BME280;14780;48.316;-1.050;2023-01-27T08:42:49;99943.13;;;23.27;31.99
18569;BME280;14780;48.316;-1.050;2023-01-27T08:45:34;99956.78;;;23.27;31.99
18569;BME280;14780;48.316;-1.050;2023-01-27T08:48:19;99955.13;;;23.26;32.02
18569;BME280;14780;48.316;-1.050;2023-01-27T08:51:07;99949.69;;;23.26;32.20
18569;BME280;14780;48.316;-1.050;2023-01-27T08:53:52;99949.69;;;23.26;31.99
18569;BME280;14780;48.316;-1.050;2023-01-27T08:56:37;99951.84;;;23.24;32.39
18569;BME280;14780;48.316;-1.050;2023-01-27T08:59:21;99960.03;;;23.24;32.45
18569;BME280;14780;48.316;-1.050;2023-01-27T09:02:07;99963.94;;;23.28;32.09
18569;BME280;14780;48.316;-1.050;2023-01-27T09:04:53;99963.94;;;23.28;32.24
18569;BME280;14780;48.316;-1.050;2023-01-27T09:07:38;99961.69;;;23.25;32.05
18569;BME280;14780;48.316;-1.050;2023-01-27T09:10:22;99958.94;;;23.25;32.09
18569;BME280;14780;48.316;-1.050;2023-01-27T09:13:08;99962.75;;;23.24;32.14
18569;BME280;14780;48.316;-1.050;2023-01-27T09:15:53;99958.94;;;23.25;32.29
18569;BME280;14780;48.316;-1.050;2023-01-27T09:18:38;99958.13;;;23.24;32.14
18569;BME280;14780;48.316;-1.050;2023-01-27T09:21:22;99953.50;;;23.25;31.98
18569;BME280;14780;48.316;-1.050;2023-01-27T09:24:07;99950.19;;;23.23;32.17
18569;BME280;14780;48.316;-1.050;2023-01-27T09:26:52;99949.09;;;23.24;32.32
18569;BME280;14780;48.316;-1.050;2023-01-27T09:29:37;99951.25;;;23.22;32.44
18569;BME280;14780;48.316;-1.050;2023-01-27T09:32:24;99944.97;;;23.21;32.17
18569;BME280;14780;48.316;-1.050;2023-01-27T09:35:09;99950.66;;;23.20;32.00
18569;BME280;14780;48.316;-1.050;2023-01-27T09:37:56;99951.25;;;23.22;32.02
18569;BME280;14780;48.316;-1.050;2023-01-27T10:17:33;99958.41;;;23.11;32.24
18569;BME280;14780;48.316;-1.050;2023-01-27T10:20:47;99966.59;;;23.11;31.94
18569;BME280;14780;48.316;-1.050;2023-01-27T10:24:03;99966.84;;;23.10;32.03
18569;BME280;14780;48.316;-1.050;2023-01-27T10:26:54;99960.91;;;23.13;32.21
18569;BME280;14780;48.316;-1.050;2023-01-27T10:29:46;99955.44;;;23.13;31.91
18569;BME280;14780;48.316;-1.050;2023-01-27T10:38:39;99970.16;;;23.12;32.27
18569;BME280;14780;48.316;-1.050;2023-01-27T10:47:37;99964.97;;;23.10;32.02
18569;BME280;14780;48.316;-1.050;2023-01-27T10:50:36;99966.59;;;23.11;32.11
18569;BME280;14780;48.316;-1.050;2023-01-27T11:00:02;99961.38;;;23.10;32.31
18569;BME280;14780;48.316;-1.050;2023-01-27T11:02:59;99959.72;;;23.09;32.12
18569;BME280;14780;48.316;-1.050;2023-01-27T11:05:55;99960.25;;;23.06;31.96
18569;BME280;14780;48.316;-1.050;2023-01-27T11:08:44;99949.06;;;23.07;31.77
18569;BME280;14780;48.316;-1.050;2023-01-27T11:11:31;99952.88;;;23.06;32.12
18569;BME280;14780;48.316;-1.050;2023-01-27T11:14:34;99954.50;;;23.07;32.19
18569;BME280;14780;48.316;-1.050;2023-01-27T11:17:31;99942.19;;;23.05;32.20
18569;BME280;14780;48.316;-1.050;2023-01-27T11:23:19;99952.72;;;23.13;32.37
18569;BME280;14780;48.316;-1.050;2023-01-27T11:32:11;99938.09;;;23.19;32.19
18569;BME280;14780;48.316;-1.050;2023-01-27T11:35:09;99936.19;;;23.19;32.07
18569;BME280;14780;48.316;-1.050;2023-01-27T11:37:54;99934.56;;;23.18;32.33
18569;BME280;14780;48.316;-1.050;2023-01-27T11:40:39;99946.03;;;23.20;32.11
18569;BME280;14780;48.316;-1.050;2023-01-27T11:43:25;99943.06;;;23.22;32.37
18569;BME280;14780;48.316;-1.050;2023-01-27T11:46:22;99932.97;;;23.22;32.47
18569;BME280;14780;48.316;-1.050;2023-01-27T11:49:08;99936.78;;;23.21;32.45
18569;BME280;14780;48.316;-1.050;2023-01-27T11:52:00;99926.41;;;23.23;32.33
18569;BME280;14780;48.316;-1.050;2023-01-27T11:57:45;99925.94;;;23.26;32.37
18569;BME280;14780;48.316;-1.050;2023-01-27T12:00:37;99921.06;;;23.28;32.62
18569;BME280;14780;48.316;-1.050;2023-01-27T12:15:01;99909.47;;;23.38;32.78
18569;BME280;14780;48.316;-1.050;2023-01-27T12:17:52;99908.16;;;23.40;32.75
18569;BME280;14780;48.316;-1.050;2023-01-27T12:20:49;99901.59;;;23.41;32.76
18569;BME280;14780;48.316;-1.050;2023-01-27T12:23:53;99901.09;;;23.44;32.70
18569;BME280;14780;48.316;-1.050;2023-01-27T12:26:41;99887.72;;;23.42;32.44
18569;BME280;14780;48.316;-1.050;2023-01-27T12:32:36;99882.50;;;23.41;32.56
18569;BME280;14780;48.316;-1.050;2023-01-27T12:35:32;99881.66;;;23.40;32.50
18569;BME280;14780;48.316;-1.050;2023-01-27T12:38:23;99878.09;;;23.40;32.89
18569;BME280;14780;48.316;-1.050;2023-01-27T12:41:09;99875.94;;;23.42;32.90
18569;BME280;14780;48.316;-1.050;2023-01-27T12:44:11;99874.06;;;23.42;32.47
18569;BME280;14780;48.316;-1.050;2023-01-27T12:47:12;99874.63;;;23.44;32.52
18569;BME280;14780;48.316;-1.050;2023-01-27T12:50:20;99871.81;;;23.39;32.38
18569;BME280;14780;48.316;-1.050;2023-01-27T12:53:19;99868.50;;;23.38;32.26
18569;BME280;14780;48.316;-1.050;2023-01-27T12:56:11;99866.63;;;23.38;32.18
18569;BME280;14780;48.316;-1.050;2023-01-27T12:58:58;99855.38;;;23.35;32.11
18569;BME280;14780;48.316;-1.050;2023-01-27T13:01:56;99855.59;;;23.33;32.00
18569;BME280;14780;48.316;-1.050;2023-01-27T13:04:41;99841.09;;;23.33;31.90
18569;BME280;14780;48.316;-1.050;2023-01-27T13:07:30;99836.97;;;23.30;32.14
18569;BME280;14780;48.316;-1.050;2023-01-27T13:10:25;99825.81;;;23.32;31.80
18569;BME280;14780;48.316;-1.050;2023-01-27T13:13:18;99833.69;;;23.28;31.58
18569;BME280;14780;48.316;-1.050;2023-01-27T13:16:14;99835.84;;;23.26;31.60
18569;BME280;14780;48.316;-1.050;2023-01-27T13:19:01;99825.41;;;23.23;31.63
18569;BME280;14780;48.316;-1.050;2023-01-27T13:21:48;99828.41;;;23.22;31.41
18569;BME280;14780;48.316;-1.050;2023-01-27T13:24:39;99832.44;;;23.19;31.16
18569;BME280;14780;48.316;-1.050;2023-01-27T13:27:26;99836.50;;;23.17;31.28
18569;BME280;14780;48.316;-1.050;2023-01-27T13:30:18;99840.31;;;23.16;31.50
18569;BME280;14780;48.316;-1.050;2023-01-27T13:33:22;99848.50;;;23.16;31.43
18569;BME280;14780;48.316;-1.050;2023-01-27T13:39:27;99848.00;;;23.19;31.61
18569;BME280;14780;48.316;-1.050;2023-01-27T13:46:14;99844.78;;;23.22;31.69
18569;BME280;14780;48.316;-1.050;2023-01-27T13:49:16;99847.25;;;23.23;31.31
18569;BME280;14780;48.316;-1.050;2023-01-27T13:52:04;99837.69;;;23.21;31.34
18569;BME280;14780;48.316;-1.050;2023-01-27T13:54:51;99840.97;;;23.23;31.42
18569;BME280;14780;48.316;-1.050;2023-01-27T13:57:57;99843.47;;;23.24;31.79
18569;BME280;14780;48.316;-1.050;2023-01-27T14:00:54;99841.06;;;23.28;31.65
18569;BME280;14780;48.316;-1.050;2023-01-27T14:03:50;99834.50;;;23.29;31.77
18569;BME280;14780;48.316;-1.050;2023-01-27T14:10:16;99841.06;;;23.28;31.67
18569;BME280;14780;48.316;-1.050;2023-01-27T14:16:21;99844.91;;;23.32;31.62
18569;BME280;14780;48.316;-1.050;2023-01-27T14:19:43;99840.53;;;23.31;32.07
18569;BME280;14780;48.316;-1.050;2023-01-27T14:22:46;99842.19;;;23.32;31.78
18569;BME280;14780;48.316;-1.050;2023-01-27T14:29:06;99840.03;;;23.33;32.02
18569;BME280;14780;48.316;-1.050;2023-01-27T14:38:41;99832.69;;;23.34;31.92
18569;BME280;14780;48.316;-1.050;2023-01-27T14:47:54;99852.00;;;23.49;32.26
18569;BME280;14780;48.316;-1.050;2023-01-27T15:05:25;99866.56;;;23.54;32.17
18569;BME280;14780;48.316;-1.050;2023-01-27T15:08:31;99867.16;;;23.56;32.29
18569;BME280;14780;48.316;-1.050;2023-01-27T15:11:28;99863.59;;;23.56;32.23
18569;BME280;14780;48.316;-1.050;2023-01-27T15:26:25;99887.25;;;23.67;32.32
18569;BME280;14780;48.316;-1.050;2023-01-27T15:29:23;99890.78;;;23.67;32.42
18569;BME280;14780;48.316;-1.050;2023-01-27T15:41:09;99885.91;;;23.69;32.42
18569;BME280;14780;48.316;-1.050;2023-01-27T15:47:06;99893.53;;;23.67;32.78
18569;BME280;14780;48.316;-1.050;2023-01-27T15:50:17;99882.59;;;23.67;32.37
18569;BME280;14780;48.316;-1.050;2023-01-27T15:56:16;99893.53;;;23.67;32.58
18569;BME280;14780;48.316;-1.050;2023-01-27T15:59:03;99891.63;;;23.68;32.30
18569;BME280;14780;48.316;-1.050;2023-01-27T16:01:58;99893.53;;;23.67;32.67
18569;BME280;14780;48.316;-1.050;2023-01-27T16:04:50;99897.34;;;23.66;32.69
18569;BME280;14780;48.316;-1.050;2023-01-27T16:07:37;99908.28;;;23.66;32.71
18569;BME280;14780;48.316;-1.050;2023-01-27T16:10:26;99896.50;;;23.66;32.67
18569;BME280;14780;48.316;-1.050;2023-01-27T16:13:33;99903.88;;;23.65;32.51
18569;BME280;14780;48.316;-1.050;2023-01-27T16:22:12;99909.59;;;23.64;32.66
18569;BME280;14780;48.316;-1.050;2023-01-27T16:28:17;99915.06;;;23.64;32.42
18569;BME280;14780;48.316;-1.050;2023-01-27T16:31:15;99923.00;;;23.65;32.85
18569;BME280;14780;48.316;-1.050;2023-01-27T16:34:04;99917.56;;;23.65;32.69
18569;BME280;14780;48.316;-1.050;2023-01-27T16:37:02;99930.97;;;23.67;32.67
18569;BME280;14780;48.316;-1.050;2023-01-27T16:40:14;99930.13;;;23.66;32.71
18569;BME280;14780;48.316;-1.050;2023-01-27T16:43:05;99928.25;;;23.67;32.59
18569;BME280;14780;48.316;-1.050;2023-01-27T16:45:59;99941.06;;;23.66;32.73
18569;BME280;14780;48.316;-1.050;2023-01-27T16:48:46;99935.06;;;23.69;32.41
18569;BME280;14780;48.316;-1.050;2023-01-27T16:51:32;99932.34;;;23.69;32.74
18569;BME280;14780;48.316;-1.050;2023-01-27T16:54:22;99945.53;;;23.72;32.55
18569;BME280;14780;48.316;-1.050;2023-01-27T16:57:28;99944.69;;;23.72;33.12
18569;BME280;14780;48.316;-1.050;2023-01-27T17:00:25;99949.66;;;23.75;33.08
18569;BME280;14780;48.316;-1.050;2023-01-27T17:03:16;99954.28;;;23.74;33.22
18569;BME280;14780;48.316;-1.050;2023-01-27T17:06:04;99952.66;;;23.73;32.86
18569;BME280;14780;48.316;-1.050;2023-01-27T17:08:51;99962.50;;;23.74;33.26
18569;BME280;14780;48.316;-1.050;2023-01-27T17:11:36;99965.56;;;23.78;33.36
18569;BME280;14780;48.316;-1.050;2023-01-27T17:14:28;99962.81;;;23.78;33.23
18569;BME280;14780;48.316;-1.050;2023-01-27T17:17:17;99965.31;;;23.79;33.13
18569;BME280;14780;48.316;-1.050;2023-01-27T17:20:05;99977.31;;;23.78;33.44
18569;BME280;14780;48.316;-1.050;2023-01-27T17:22:51;99979.22;;;23.78;33.44
18569;BME280;14780;48.316;-1.050;2023-01-27T17:25:38;99975.66;;;23.77;33.18
18569;BME280;14780;48.316;-1.050;2023-01-27T17:28:26;99980.53;;;23.75;33.44
18569;BME280;14780;48.316;-1.050;2023-01-27T17:31:32;99977.75;;;23.70;33.40